sensor_id;sensor_type;location;lat;lon;timestamp;P1;durP1;ratioP1;P2;durP2;ratioP2
20623;SDS011;10471;42.736;23.346;2022-11-15T00:00:42;201.70;;;99.90;;
20623;SDS011;10471;42.736;23.346;2022-11-15T00:03:08;194.50;;;96.30;;
20623;SDS011;10471;42.736;23.346;2022-11-15T00:05:36;184.33;;;93.03;;
20623;SDS011;10471;42.736;23.346;2022-11-15T00:08:01;197.63;;;95.30;;
20623;SDS011;10471;42.736;23.346;2022-11-15T00:10:27;168.63;;;84.27;;
20623;SDS011;10471;42.736;23.346;2022-11-15T00:12:52;202.03;;;103.03;;
20623;SDS011;10471;42.736;23.346;2022-11-15T00:15:17;173.30;;;89.40;;
20623;SDS011;10471;42.736;23.346;2022-11-15T00:17:43;172.47;;;91.50;;
20623;SDS011;10471;42.736;23.346;2022-11-15T00:20:08;179.20;;;86.20;;
20623;SDS011;10471;42.736;23.346;2022-11-15T00:22:34;170.93;;;86.63;;
20623;SDS011;10471;42.736;23.346;2022-11-15T00:24:59;170.73;;;87.07;;
20623;SDS011;10471;42.736;23.346;2022-11-15T00:27:25;161.47;;;81.53;;
20623;SDS011;10471;42.736;23.346;2022-11-15T00:29:50;157.13;;;79.80;;
20623;SDS011;10471;42.736;23.346;2022-11-15T00:32:15;166.60;;;81.87;;
20623;SDS011;10471;42.736;23.346;2022-11-15T00:34:41;166.70;;;83.27;;
20623;SDS011;10471;42.736;23.346;2022-11-15T00:37:06;164.13;;;83.40;;
20623;SDS011;10471;42.736;23.346;2022-11-15T00:39:32;171.37;;;83.90;;
20623;SDS011;10471;42.736;23.346;2022-11-15T00:41:57;160.73;;;77.87;;
20623;SDS011;10471;42.736;23.346;2022-11-15T00:44:22;165.13;;;80.87;;
20623;SDS011;10471;42.736;23.346;2022-11-15T00:46:48;168.23;;;82.27;;
20623;SDS011;10471;42.736;23.346;2022-11-15T00:49:13;164.67;;;83.70;;
20623;SDS011;10471;42.736;23.346;2022-11-15T00:51:38;168.67;;;84.53;;
20623;SDS011;10471;42.736;23.346;2022-11-15T00:54:04;170.80;;;80.03;;
20623;SDS011;10471;42.736;23.346;2022-11-15T00:56:29;150.33;;;78.70;;
20623;SDS011;10471;42.736;23.346;2022-11-15T00:58:55;160.43;;;78.73;;
20623;SDS011;10471;42.736;23.346;2022-11-15T01:01:20;161.67;;;80.37;;
20623;SDS011;10471;42.736;23.346;2022-11-15T01:03:45;157.20;;;80.27;;
20623;SDS011;10471;42.736;23.346;2022-11-15T01:06:11;161.93;;;80.50;;
20623;SDS011;10471;42.736;23.346;2022-11-15T01:08:37;157.17;;;78.00;;
20623;SDS011;10471;42.736;23.346;2022-11-15T01:11:09;157.30;;;77.90;;
20623;SDS011;10471;42.736;23.346;2022-11-15T01:13:36;157.13;;;79.73;;
20623;SDS011;10471;42.736;23.346;2022-11-15T01:16:21;166.63;;;78.83;;
20623;SDS011;10471;42.736;23.346;2022-11-15T01:18:46;156.00;;;79.37;;
20623;SDS011;10471;42.736;23.346;2022-11-15T01:21:16;164.07;;;78.27;;
20623;SDS011;10471;42.736;23.346;2022-11-15T01:23:43;173.23;;;81.77;;
20623;SDS011;10471;42.736;23.346;2022-11-15T01:26:10;162.43;;;80.00;;
20623;SDS011;10471;42.736;23.346;2022-11-15T01:28:38;156.30;;;79.43;;
20623;SDS011;10471;42.736;23.346;2022-11-15T01:31:05;161.07;;;78.80;;
20623;SDS011;10471;42.736;23.346;2022-11-15T01:33:34;159.50;;;78.80;;
20623;SDS011;10471;42.736;23.346;2022-11-15T01:36:04;165.43;;;80.13;;
20623;SDS011;10471;42.736;23.346;2022-11-15T01:38:31;168.27;;;82.27;;
20623;SDS011;10471;42.736;23.346;2022-11-15T01:40:57;171.43;;;82.53;;
20623;SDS011;10471;42.736;23.346;2022-11-15T01:43:23;167.43;;;80.00;;
20623;SDS011;10471;42.736;23.346;2022-11-15T01:45:50;185.43;;;81.50;;
20623;SDS011;10471;42.736;23.346;2022-11-15T01:48:20;180.93;;;81.03;;
20623;SDS011;10471;42.736;23.346;2022-11-15T01:50:47;180.80;;;80.90;;
20623;SDS011;10471;42.736;23.346;2022-11-15T01:53:13;180.57;;;81.63;;
20623;SDS011;10471;42.736;23.346;2022-11-15T01:55:40;182.70;;;81.17;;
20623;SDS011;10471;42.736;23.346;2022-11-15T01:58:06;178.93;;;82.73;;
20623;SDS011;10471;42.736;23.346;2022-11-15T02:00:32;183.23;;;80.97;;
20623;SDS011;10471;42.736;23.346;2022-11-15T02:02:57;191.80;;;85.87;;
20623;SDS011;10471;42.736;23.346;2022-11-15T02:05:23;213.10;;;87.30;;
20623;SDS011;10471;42.736;23.346;2022-11-15T02:07:48;200.63;;;91.00;;
20623;SDS011;10471;42.736;23.346;2022-11-15T02:10:19;231.43;;;93.93;;
20623;SDS011;10471;42.736;23.346;2022-11-15T02:12:47;200.30;;;90.53;;
20623;SDS011;10471;42.736;23.346;2022-11-15T02:15:13;211.13;;;91.80;;
20623;SDS011;10471;42.736;23.346;2022-11-15T02:35:45;196.20;;;80.83;;
20623;SDS011;10471;42.736;23.346;2022-11-15T02:38:35;206.63;;;79.67;;
20623;SDS011;10471;42.736;23.346;2022-11-15T02:41:11;184.07;;;78.50;;
20623;SDS011;10471;42.736;23.346;2022-11-15T02:46:26;195.33;;;78.53;;
20623;SDS011;10471;42.736;23.346;2022-11-15T02:49:13;206.10;;;80.37;;
20623;SDS011;10471;42.736;23.346;2022-11-15T02:51:39;224.77;;;82.83;;
20623;SDS011;10471;42.736;23.346;2022-11-15T02:54:06;215.97;;;84.73;;
20623;SDS011;10471;42.736;23.346;2022-11-15T02:56:35;214.70;;;84.80;;
20623;SDS011;10471;42.736;23.346;2022-11-15T03:06:55;241.43;;;88.67;;
20623;SDS011;10471;42.736;23.346;2022-11-15T03:09:34;250.77;;;89.80;;
20623;SDS011;10471;42.736;23.346;2022-11-15T03:12:08;228.90;;;85.37;;
20623;SDS011;10471;42.736;23.346;2022-11-15T03:14:43;221.83;;;82.87;;
20623;SDS011;10471;42.736;23.346;2022-11-15T03:17:26;207.33;;;78.27;;
20623;SDS011;10471;42.736;23.346;2022-11-15T03:20:16;228.07;;;79.13;;
20623;SDS011;10471;42.736;23.346;2022-11-15T03:22:43;238.17;;;80.93;;
20623;SDS011;10471;42.736;23.346;2022-11-15T03:25:13;258.40;;;80.13;;
20623;SDS011;10471;42.736;23.346;2022-11-15T03:27:46;272.10;;;88.53;;
20623;SDS011;10471;42.736;23.346;2022-11-15T03:30:15;274.93;;;87.03;;
20623;SDS011;10471;42.736;23.346;2022-11-15T03:32:43;287.63;;;85.40;;
20623;SDS011;10471;42.736;23.346;2022-11-15T03:35:12;261.30;;;82.63;;
20623;SDS011;10471;42.736;23.346;2022-11-15T03:37:53;242.87;;;76.50;;
20623;SDS011;10471;42.736;23.346;2022-11-15T03:40:45;371.73;;;86.53;;
20623;SDS011;10471;42.736;23.346;2022-11-15T03:43:30;279.97;;;79.97;;
20623;SDS011;10471;42.736;23.346;2022-11-15T03:46:16;296.23;;;79.67;;
20623;SDS011;10471;42.736;23.346;2022-11-15T03:48:50;349.73;;;83.60;;
20623;SDS011;10471;42.736;23.346;2022-11-15T03:51:19;453.20;;;86.57;;
20623;SDS011;10471;42.736;23.346;2022-11-15T03:53:45;376.53;;;84.27;;
20623;SDS011;10471;42.736;23.346;2022-11-15T03:56:11;406.97;;;81.30;;
20623;SDS011;10471;42.736;23.346;2022-11-15T03:58:36;371.17;;;84.30;;
20623;SDS011;10471;42.736;23.346;2022-11-15T04:01:02;310.83;;;81.27;;
20623;SDS011;10471;42.736;23.346;2022-11-15T04:03:27;293.47;;;76.67;;
20623;SDS011;10471;42.736;23.346;2022-11-15T04:05:53;274.27;;;78.23;;
20623;SDS011;10471;42.736;23.346;2022-11-15T04:08:18;349.90;;;80.03;;
20623;SDS011;10471;42.736;23.346;2022-11-15T04:10:43;450.33;;;84.50;;
20623;SDS011;10471;42.736;23.346;2022-11-15T04:13:09;229.30;;;74.03;;
20623;SDS011;10471;42.736;23.346;2022-11-15T04:15:34;538.73;;;88.40;;
20623;SDS011;10471;42.736;23.346;2022-11-15T04:18:00;257.17;;;73.47;;
20623;SDS011;10471;42.736;23.346;2022-11-15T04:20:29;535.80;;;88.43;;
20623;SDS011;10471;42.736;23.346;2022-11-15T04:23:18;229.97;;;73.77;;
20623;SDS011;10471;42.736;23.346;2022-11-15T04:26:08;248.90;;;73.23;;
20623;SDS011;10471;42.736;23.346;2022-11-15T04:28:37;497.43;;;83.53;;
20623;SDS011;10471;42.736;23.346;2022-11-15T04:31:23;214.63;;;68.20;;
20623;SDS011;10471;42.736;23.346;2022-11-15T04:33:49;191.37;;;64.67;;
20623;SDS011;10471;42.736;23.346;2022-11-15T04:36:14;387.80;;;70.27;;
20623;SDS011;10471;42.736;23.346;2022-11-15T04:38:58;216.67;;;59.10;;
20623;SDS011;10471;42.736;23.346;2022-11-15T04:41:23;198.70;;;62.17;;
20623;SDS011;10471;42.736;23.346;2022-11-15T04:43:49;327.13;;;71.33;;
20623;SDS011;10471;42.736;23.346;2022-11-15T04:46:14;208.80;;;66.90;;
20623;SDS011;10471;42.736;23.346;2022-11-15T04:48:39;208.77;;;66.73;;
20623;SDS011;10471;42.736;23.346;2022-11-15T04:51:05;195.77;;;62.17;;
20623;SDS011;10471;42.736;23.346;2022-11-15T04:53:30;191.73;;;59.97;;
20623;SDS011;10471;42.736;23.346;2022-11-15T04:55:55;236.20;;;59.37;;
20623;SDS011;10471;42.736;23.346;2022-11-15T04:58:21;197.67;;;56.17;;
20623;SDS011;10471;42.736;23.346;2022-11-15T05:00:46;177.73;;;58.60;;
20623;SDS011;10471;42.736;23.346;2022-11-15T05:03:12;230.00;;;72.50;;
20623;SDS011;10471;42.736;23.346;2022-11-15T05:05:56;225.63;;;67.43;;
20623;SDS011;10471;42.736;23.346;2022-11-15T05:08:22;216.13;;;73.67;;
20623;SDS011;10471;42.736;23.346;2022-11-15T05:10:48;319.07;;;92.17;;
20623;SDS011;10471;42.736;23.346;2022-11-15T05:13:13;279.30;;;96.30;;
20623;SDS011;10471;42.736;23.346;2022-11-15T05:15:39;319.23;;;99.20;;
20623;SDS011;10471;42.736;23.346;2022-11-15T05:18:04;224.37;;;75.70;;
20623;SDS011;10471;42.736;23.346;2022-11-15T05:20:29;199.57;;;64.93;;
20623;SDS011;10471;42.736;23.346;2022-11-15T05:22:55;246.27;;;70.30;;
20623;SDS011;10471;42.736;23.346;2022-11-15T05:25:21;304.93;;;73.20;;
20623;SDS011;10471;42.736;23.346;2022-11-15T05:27:47;266.97;;;71.73;;
20623;SDS011;10471;42.736;23.346;2022-11-15T05:30:12;234.67;;;69.10;;
20623;SDS011;10471;42.736;23.346;2022-11-15T05:32:38;203.93;;;71.13;;
20623;SDS011;10471;42.736;23.346;2022-11-15T05:35:04;255.10;;;69.03;;
20623;SDS011;10471;42.736;23.346;2022-11-15T05:37:33;360.03;;;82.30;;
20623;SDS011;10471;42.736;23.346;2022-11-15T05:39:59;343.80;;;80.53;;
20623;SDS011;10471;42.736;23.346;2022-11-15T05:42:24;269.77;;;82.93;;
20623;SDS011;10471;42.736;23.346;2022-11-15T05:44:51;272.77;;;78.70;;
20623;SDS011;10471;42.736;23.346;2022-11-15T05:47:19;310.33;;;83.10;;
20623;SDS011;10471;42.736;23.346;2022-11-15T05:49:48;378.37;;;81.97;;
20623;SDS011;10471;42.736;23.346;2022-11-15T05:52:17;389.17;;;83.60;;
20623;SDS011;10471;42.736;23.346;2022-11-15T05:54:50;285.77;;;80.07;;
20623;SDS011;10471;42.736;23.346;2022-11-15T05:57:17;254.23;;;77.90;;
20623;SDS011;10471;42.736;23.346;2022-11-15T05:59:42;238.10;;;74.83;;
20623;SDS011;10471;42.736;23.346;2022-11-15T06:02:08;348.43;;;98.20;;
20623;SDS011;10471;42.736;23.346;2022-11-15T06:04:34;308.67;;;93.30;;
20623;SDS011;10471;42.736;23.346;2022-11-15T06:07:00;269.77;;;89.97;;
20623;SDS011;10471;42.736;23.346;2022-11-15T06:09:25;291.60;;;89.57;;
20623;SDS011;10471;42.736;23.346;2022-11-15T06:11:51;317.77;;;97.40;;
20623;SDS011;10471;42.736;23.346;2022-11-15T06:14:16;322.97;;;101.67;;
20623;SDS011;10471;42.736;23.346;2022-11-15T06:16:41;346.27;;;108.70;;
20623;SDS011;10471;42.736;23.346;2022-11-15T06:19:07;423.33;;;110.57;;
20623;SDS011;10471;42.736;23.346;2022-11-15T06:21:32;405.17;;;115.80;;
20623;SDS011;10471;42.736;23.346;2022-11-15T06:23:58;331.57;;;102.10;;
20623;SDS011;10471;42.736;23.346;2022-11-15T06:26:23;317.57;;;103.20;;
20623;SDS011;10471;42.736;23.346;2022-11-15T06:28:49;269.20;;;91.60;;
20623;SDS011;10471;42.736;23.346;2022-11-15T06:31:14;320.93;;;95.53;;
20623;SDS011;10471;42.736;23.346;2022-11-15T06:33:40;251.87;;;87.20;;
20623;SDS011;10471;42.736;23.346;2022-11-15T06:36:06;257.33;;;86.07;;
20623;SDS011;10471;42.736;23.346;2022-11-15T06:38:34;251.60;;;81.10;;
20623;SDS011;10471;42.736;23.346;2022-11-15T06:41:06;260.77;;;83.57;;
20623;SDS011;10471;42.736;23.346;2022-11-15T06:43:34;287.90;;;87.17;;
20623;SDS011;10471;42.736;23.346;2022-11-15T06:46:00;333.27;;;90.33;;
20623;SDS011;10471;42.736;23.346;2022-11-15T06:48:28;290.33;;;88.20;;
20623;SDS011;10471;42.736;23.346;2022-11-15T06:50:54;281.60;;;84.93;;
20623;SDS011;10471;42.736;23.346;2022-11-15T06:53:21;353.87;;;98.90;;
20623;SDS011;10471;42.736;23.346;2022-11-15T06:55:46;260.43;;;97.03;;
20623;SDS011;10471;42.736;23.346;2022-11-15T06:58:12;375.37;;;101.47;;
20623;SDS011;10471;42.736;23.346;2022-11-15T07:00:38;342.63;;;103.87;;
20623;SDS011;10471;42.736;23.346;2022-11-15T07:03:03;334.77;;;104.60;;
20623;SDS011;10471;42.736;23.346;2022-11-15T07:05:29;290.23;;;103.50;;
20623;SDS011;10471;42.736;23.346;2022-11-15T07:07:55;325.97;;;103.23;;
20623;SDS011;10471;42.736;23.346;2022-11-15T07:10:22;349.00;;;102.53;;
20623;SDS011;10471;42.736;23.346;2022-11-15T07:12:49;409.30;;;107.53;;
20623;SDS011;10471;42.736;23.346;2022-11-15T07:15:16;304.43;;;96.33;;
20623;SDS011;10471;42.736;23.346;2022-11-15T07:17:42;273.83;;;83.33;;
20623;SDS011;10471;42.736;23.346;2022-11-15T07:20:08;252.07;;;76.63;;
20623;SDS011;10471;42.736;23.346;2022-11-15T07:22:33;204.33;;;72.07;;
20623;SDS011;10471;42.736;23.346;2022-11-15T07:24:59;254.70;;;86.70;;
20623;SDS011;10471;42.736;23.346;2022-11-15T07:27:24;215.70;;;74.20;;
20623;SDS011;10471;42.736;23.346;2022-11-15T07:29:49;220.13;;;73.40;;
20623;SDS011;10471;42.736;23.346;2022-11-15T07:32:15;187.57;;;73.33;;
20623;SDS011;10471;42.736;23.346;2022-11-15T07:34:40;166.70;;;60.50;;
20623;SDS011;10471;42.736;23.346;2022-11-15T07:37:06;138.93;;;56.20;;
20623;SDS011;10471;42.736;23.346;2022-11-15T07:39:31;112.37;;;39.53;;
20623;SDS011;10471;42.736;23.346;2022-11-15T07:41:56;106.00;;;40.40;;
20623;SDS011;10471;42.736;23.346;2022-11-15T07:44:42;104.73;;;41.53;;
20623;SDS011;10471;42.736;23.346;2022-11-15T07:47:07;103.23;;;41.57;;
20623;SDS011;10471;42.736;23.346;2022-11-15T07:49:32;112.80;;;39.93;;
20623;SDS011;10471;42.736;23.346;2022-11-15T07:51:58;106.80;;;38.57;;
20623;SDS011;10471;42.736;23.346;2022-11-15T07:54:23;112.97;;;39.13;;
20623;SDS011;10471;42.736;23.346;2022-11-15T07:56:49;90.67;;;35.30;;
20623;SDS011;10471;42.736;23.346;2022-11-15T07:59:14;89.40;;;35.70;;
20623;SDS011;10471;42.736;23.346;2022-11-15T08:01:39;85.10;;;34.20;;
20623;SDS011;10471;42.736;23.346;2022-11-15T08:04:05;76.57;;;33.53;;
20623;SDS011;10471;42.736;23.346;2022-11-15T08:06:30;113.50;;;48.87;;
20623;SDS011;10471;42.736;23.346;2022-11-15T08:08:55;87.57;;;37.13;;
20623;SDS011;10471;42.736;23.346;2022-11-15T08:11:21;85.77;;;37.60;;
20623;SDS011;10471;42.736;23.346;2022-11-15T08:13:46;79.67;;;35.77;;
20623;SDS011;10471;42.736;23.346;2022-11-15T08:16:11;89.90;;;36.47;;
20623;SDS011;10471;42.736;23.346;2022-11-15T08:18:37;87.17;;;36.17;;
20623;SDS011;10471;42.736;23.346;2022-11-15T08:21:03;84.80;;;37.80;;
20623;SDS011;10471;42.736;23.346;2022-11-15T08:23:29;92.70;;;36.93;;
20623;SDS011;10471;42.736;23.346;2022-11-15T08:26:02;82.83;;;35.83;;
20623;SDS011;10471;42.736;23.346;2022-11-15T08:28:29;87.40;;;38.23;;
20623;SDS011;10471;42.736;23.346;2022-11-15T08:30:54;89.57;;;38.63;;
20623;SDS011;10471;42.736;23.346;2022-11-15T08:33:20;86.20;;;38.17;;
20623;SDS011;10471;42.736;23.346;2022-11-15T08:35:45;86.00;;;37.47;;
20623;SDS011;10471;42.736;23.346;2022-11-15T08:38:11;89.43;;;38.43;;
20623;SDS011;10471;42.736;23.346;2022-11-15T08:40:36;85.47;;;36.93;;
20623;SDS011;10471;42.736;23.346;2022-11-15T08:43:02;87.17;;;38.00;;
20623;SDS011;10471;42.736;23.346;2022-11-15T08:45:29;95.00;;;39.27;;
20623;SDS011;10471;42.736;23.346;2022-11-15T08:47:55;92.63;;;39.60;;
20623;SDS011;10471;42.736;23.346;2022-11-15T08:50:21;105.73;;;43.13;;
20623;SDS011;10471;42.736;23.346;2022-11-15T08:52:46;89.23;;;42.77;;
20623;SDS011;10471;42.736;23.346;2022-11-15T08:55:13;81.57;;;37.13;;
20623;SDS011;10471;42.736;23.346;2022-11-15T08:57:38;84.30;;;37.73;;
20623;SDS011;10471;42.736;23.346;2022-11-15T09:00:04;80.00;;;35.67;;
20623;SDS011;10471;42.736;23.346;2022-11-15T09:02:30;82.70;;;36.50;;
20623;SDS011;10471;42.736;23.346;2022-11-15T09:04:56;90.67;;;39.10;;
20623;SDS011;10471;42.736;23.346;2022-11-15T09:07:21;87.27;;;36.70;;
20623;SDS011;10471;42.736;23.346;2022-11-15T09:09:46;94.47;;;39.17;;
20623;SDS011;10471;42.736;23.346;2022-11-15T09:12:12;88.03;;;39.87;;
20623;SDS011;10471;42.736;23.346;2022-11-15T09:14:37;88.33;;;39.30;;
20623;SDS011;10471;42.736;23.346;2022-11-15T09:17:03;79.90;;;36.93;;
20623;SDS011;10471;42.736;23.346;2022-11-15T09:19:29;91.90;;;39.80;;
20623;SDS011;10471;42.736;23.346;2022-11-15T09:21:54;146.83;;;58.17;;
20623;SDS011;10471;42.736;23.346;2022-11-15T09:24:19;85.17;;;39.23;;
20623;SDS011;10471;42.736;23.346;2022-11-15T09:26:46;67.27;;;33.23;;
20623;SDS011;10471;42.736;23.346;2022-11-15T09:29:11;67.17;;;32.57;;
20623;SDS011;10471;42.736;23.346;2022-11-15T09:31:36;74.73;;;36.07;;
20623;SDS011;10471;42.736;23.346;2022-11-15T09:34:02;73.23;;;35.27;;
20623;SDS011;10471;42.736;23.346;2022-11-15T09:36:27;73.13;;;35.60;;
20623;SDS011;10471;42.736;23.346;2022-11-15T09:38:53;68.93;;;36.40;;
20623;SDS011;10471;42.736;23.346;2022-11-15T09:44:17;84.67;;;39.57;;
20623;SDS011;10471;42.736;23.346;2022-11-15T09:50:00;83.73;;;38.67;;
20623;SDS011;10471;42.736;23.346;2022-11-15T09:52:33;94.93;;;43.53;;
20623;SDS011;10471;42.736;23.346;2022-11-15T09:55:02;95.77;;;42.50;;
20623;SDS011;10471;42.736;23.346;2022-11-15T10:00:21;92.60;;;40.60;;
20623;SDS011;10471;42.736;23.346;2022-11-15T10:11:15;116.97;;;49.67;;
20623;SDS011;10471;42.736;23.346;2022-11-15T10:13:45;123.83;;;52.33;;
20623;SDS011;10471;42.736;23.346;2022-11-15T10:24:14;123.80;;;54.23;;
20623;SDS011;10471;42.736;23.346;2022-11-15T10:26:47;114.83;;;52.43;;
20623;SDS011;10471;42.736;23.346;2022-11-15T10:29:23;115.43;;;54.40;;
20623;SDS011;10471;42.736;23.346;2022-11-15T10:31:50;115.93;;;53.73;;
20623;SDS011;10471;42.736;23.346;2022-11-15T10:34:20;117.53;;;53.03;;
20623;SDS011;10471;42.736;23.346;2022-11-15T10:39:20;107.90;;;52.50;;
20623;SDS011;10471;42.736;23.346;2022-11-15T10:41:45;110.03;;;52.67;;
20623;SDS011;10471;42.736;23.346;2022-11-15T10:46:46;112.80;;;52.50;;
20623;SDS011;10471;42.736;23.346;2022-11-15T10:49:28;104.10;;;50.47;;
20623;SDS011;10471;42.736;23.346;2022-11-15T10:52:02;100.13;;;51.27;;
20623;SDS011;10471;42.736;23.346;2022-11-15T10:54:44;105.50;;;52.67;;
20623;SDS011;10471;42.736;23.346;2022-11-15T10:57:14;105.73;;;52.13;;
20623;SDS011;10471;42.736;23.346;2022-11-15T10:59:43;100.83;;;50.03;;
20623;SDS011;10471;42.736;23.346;2022-11-15T11:05:19;96.70;;;50.73;;
20623;SDS011;10471;42.736;23.346;2022-11-15T11:07:55;97.80;;;51.50;;
20623;SDS011;10471;42.736;23.346;2022-11-15T11:10:51;105.50;;;51.37;;
20623;SDS011;10471;42.736;23.346;2022-11-15T11:13:26;98.07;;;50.73;;
20623;SDS011;10471;42.736;23.346;2022-11-15T11:16:41;99.50;;;52.63;;
20623;SDS011;10471;42.736;23.346;2022-11-15T11:19:28;105.40;;;53.93;;
20623;SDS011;10471;42.736;23.346;2022-11-15T11:41:13;111.00;;;58.27;;
20623;SDS011;10471;42.736;23.346;2022-11-15T11:52:19;93.87;;;52.70;;
20623;SDS011;10471;42.736;23.346;2022-11-15T11:55:21;91.50;;;52.30;;
20623;SDS011;10471;42.736;23.346;2022-11-15T11:57:53;87.83;;;48.83;;
20623;SDS011;10471;42.736;23.346;2022-11-15T12:00:43;96.37;;;50.20;;
20623;SDS011;10471;42.736;23.346;2022-11-15T12:06:56;88.43;;;50.43;;
20623;SDS011;10471;42.736;23.346;2022-11-15T12:12:08;90.57;;;47.93;;
20623;SDS011;10471;42.736;23.346;2022-11-15T12:17:36;87.20;;;47.87;;
20623;SDS011;10471;42.736;23.346;2022-11-15T12:20:05;89.97;;;49.77;;
20623;SDS011;10471;42.736;23.346;2022-11-15T12:30:44;89.77;;;47.27;;
20623;SDS011;10471;42.736;23.346;2022-11-15T12:33:36;88.17;;;46.93;;
20623;SDS011;10471;42.736;23.346;2022-11-15T12:36:05;85.43;;;46.57;;
20623;SDS011;10471;42.736;23.346;2022-11-15T12:41:24;86.27;;;45.67;;
20623;SDS011;10471;42.736;23.346;2022-11-15T12:44:00;81.40;;;45.27;;
20623;SDS011;10471;42.736;23.346;2022-11-15T12:49:01;79.23;;;46.10;;
20623;SDS011;10471;42.736;23.346;2022-11-15T13:04:52;75.43;;;45.33;;
20623;SDS011;10471;42.736;23.346;2022-11-15T13:09:59;81.87;;;45.70;;
20623;SDS011;10471;42.736;23.346;2022-11-15T13:14:54;79.57;;;44.73;;
20623;SDS011;10471;42.736;23.346;2022-11-15T13:17:33;71.87;;;42.20;;
20623;SDS011;10471;42.736;23.346;2022-11-15T13:35:50;84.00;;;47.43;;
20623;SDS011;10471;42.736;23.346;2022-11-15T13:40:53;83.47;;;46.90;;
20623;SDS011;10471;42.736;23.346;2022-11-15T13:46:09;88.37;;;49.87;;
20623;SDS011;10471;42.736;23.346;2022-11-15T13:48:42;84.47;;;46.63;;
20623;SDS011;10471;42.736;23.346;2022-11-15T13:53:44;136.37;;;69.60;;
20623;SDS011;10471;42.736;23.346;2022-11-15T13:56:15;106.30;;;54.77;;
20623;SDS011;10471;42.736;23.346;2022-11-15T13:58:42;86.80;;;48.30;;
20623;SDS011;10471;42.736;23.346;2022-11-15T14:01:11;91.33;;;49.70;;
20623;SDS011;10471;42.736;23.346;2022-11-15T14:03:46;88.70;;;47.97;;
20623;SDS011;10471;42.736;23.346;2022-11-15T14:06:17;96.63;;;52.40;;
20623;SDS011;10471;42.736;23.346;2022-11-15T14:11:56;112.63;;;59.37;;
20623;SDS011;10471;42.736;23.346;2022-11-15T14:14:22;196.00;;;126.83;;
20623;SDS011;10471;42.736;23.346;2022-11-15T14:16:53;103.43;;;57.17;;
20623;SDS011;10471;42.736;23.346;2022-11-15T14:24:35;83.20;;;46.93;;
20623;SDS011;10471;42.736;23.346;2022-11-15T14:29:54;342.40;;;165.87;;
20623;SDS011;10471;42.736;23.346;2022-11-15T14:37:27;96.83;;;51.13;;
20623;SDS011;10471;42.736;23.346;2022-11-15T14:39:58;93.47;;;50.37;;
20623;SDS011;10471;42.736;23.346;2022-11-15T14:42:24;102.43;;;53.87;;
20623;SDS011;10471;42.736;23.346;2022-11-15T14:44:50;107.43;;;58.10;;
20623;SDS011;10471;42.736;23.346;2022-11-15T14:47:16;108.03;;;54.27;;
20623;SDS011;10471;42.736;23.346;2022-11-15T14:49:42;99.63;;;52.90;;
20623;SDS011;10471;42.736;23.346;2022-11-15T14:52:16;113.90;;;58.67;;
20623;SDS011;10471;42.736;23.346;2022-11-15T14:54:49;109.97;;;57.40;;
20623;SDS011;10471;42.736;23.346;2022-11-15T14:57:14;119.27;;;66.00;;
20623;SDS011;10471;42.736;23.346;2022-11-15T14:59:40;119.77;;;59.70;;
20623;SDS011;10471;42.736;23.346;2022-11-15T15:02:10;115.13;;;60.40;;
20623;SDS011;10471;42.736;23.346;2022-11-15T15:04:45;115.60;;;60.90;;
20623;SDS011;10471;42.736;23.346;2022-11-15T15:07:11;117.60;;;60.70;;
20623;SDS011;10471;42.736;23.346;2022-11-15T15:09:36;144.50;;;71.10;;
20623;SDS011;10471;42.736;23.346;2022-11-15T15:12:02;142.83;;;78.30;;
20623;SDS011;10471;42.736;23.346;2022-11-15T15:14:28;226.97;;;173.70;;
20623;SDS011;10471;42.736;23.346;2022-11-15T15:16:53;143.90;;;76.27;;
20623;SDS011;10471;42.736;23.346;2022-11-15T15:19:19;140.07;;;68.43;;
20623;SDS011;10471;42.736;23.346;2022-11-15T15:21:44;162.50;;;81.10;;
20623;SDS011;10471;42.736;23.346;2022-11-15T15:24:13;183.23;;;86.97;;
20623;SDS011;10471;42.736;23.346;2022-11-15T15:26:40;188.37;;;103.83;;
20623;SDS011;10471;42.736;23.346;2022-11-15T15:29:05;180.23;;;98.50;;
20623;SDS011;10471;42.736;23.346;2022-11-15T15:31:31;143.40;;;70.23;;
20623;SDS011;10471;42.736;23.346;2022-11-15T15:33:58;130.33;;;62.40;;
20623;SDS011;10471;42.736;23.346;2022-11-15T15:36:23;139.67;;;69.00;;
20623;SDS011;10471;42.736;23.346;2022-11-15T15:38:48;166.70;;;85.23;;
20623;SDS011;10471;42.736;23.346;2022-11-15T15:41:14;219.07;;;104.33;;
20623;SDS011;10471;42.736;23.346;2022-11-15T15:43:40;193.33;;;100.13;;
20623;SDS011;10471;42.736;23.346;2022-11-15T15:46:09;203.60;;;100.73;;
20623;SDS011;10471;42.736;23.346;2022-11-15T15:48:38;291.27;;;160.77;;
20623;SDS011;10471;42.736;23.346;2022-11-15T15:51:04;313.13;;;180.60;;
20623;SDS011;10471;42.736;23.346;2022-11-15T15:53:30;338.20;;;186.53;;
20623;SDS011;10471;42.736;23.346;2022-11-15T15:55:56;290.10;;;165.27;;
20623;SDS011;10471;42.736;23.346;2022-11-15T15:58:21;227.87;;;119.73;;
20623;SDS011;10471;42.736;23.346;2022-11-15T16:00:47;244.37;;;127.53;;
20623;SDS011;10471;42.736;23.346;2022-11-15T16:03:12;236.97;;;125.83;;
20623;SDS011;10471;42.736;23.346;2022-11-15T16:05:37;220.97;;;116.73;;
20623;SDS011;10471;42.736;23.346;2022-11-15T16:08:03;293.70;;;152.03;;
20623;SDS011;10471;42.736;23.346;2022-11-15T16:10:32;261.10;;;137.23;;
20623;SDS011;10471;42.736;23.346;2022-11-15T16:13:02;256.83;;;132.13;;
20623;SDS011;10471;42.736;23.346;2022-11-15T16:15:29;261.10;;;135.13;;
20623;SDS011;10471;42.736;23.346;2022-11-15T16:17:57;292.93;;;143.77;;
20623;SDS011;10471;42.736;23.346;2022-11-15T16:20:38;337.57;;;152.70;;
20623;SDS011;10471;42.736;23.346;2022-11-15T16:23:07;212.43;;;117.83;;
20623;SDS011;10471;42.736;23.346;2022-11-15T16:25:45;236.10;;;123.63;;
20623;SDS011;10471;42.736;23.346;2022-11-15T16:28:20;345.20;;;163.27;;
20623;SDS011;10471;42.736;23.346;2022-11-15T16:30:45;270.57;;;135.30;;
20623;SDS011;10471;42.736;23.346;2022-11-15T16:33:11;246.13;;;123.20;;
20623;SDS011;10471;42.736;23.346;2022-11-15T16:35:36;240.50;;;124.10;;
20623;SDS011;10471;42.736;23.346;2022-11-15T16:38:02;257.03;;;127.60;;
20623;SDS011;10471;42.736;23.346;2022-11-15T16:40:32;257.80;;;128.07;;
20623;SDS011;10471;42.736;23.346;2022-11-15T16:42:59;286.00;;;140.83;;
20623;SDS011;10471;42.736;23.346;2022-11-15T16:45:26;320.93;;;148.93;;
20623;SDS011;10471;42.736;23.346;2022-11-15T16:47:55;318.37;;;158.53;;
20623;SDS011;10471;42.736;23.346;2022-11-15T16:50:21;309.87;;;155.17;;
20623;SDS011;10471;42.736;23.346;2022-11-15T16:52:52;316.17;;;156.07;;
20623;SDS011;10471;42.736;23.346;2022-11-15T16:55:20;350.70;;;161.27;;
20623;SDS011;10471;42.736;23.346;2022-11-15T16:57:46;399.70;;;196.80;;